sensor_id;sensor_type;location;lat;lon;timestamp;P1;durP1;ratioP1;P2;durP2;ratioP2
85137;SDS011;75497;42.708;23.330;2024-01-30T00:01:13;8.43;;;2.85;;
85137;SDS011;75497;42.708;23.330;2024-01-30T00:03:38;9.00;;;3.08;;
85137;SDS011;75497;42.708;23.330;2024-01-30T00:06:04;8.57;;;3.13;;
85137;SDS011;75497;42.708;23.330;2024-01-30T00:08:30;8.02;;;2.65;;
85137;SDS011;75497;42.708;23.330;2024-01-30T00:10:55;10.43;;;3.58;;
85137;SDS011;75497;42.708;23.330;2024-01-30T00:13:21;8.10;;;3.65;;
85137;SDS011;75497;42.708;23.330;2024-01-30T00:15:47;8.20;;;3.20;;
85137;SDS011;75497;42.708;23.330;2024-01-30T00:18:13;9.02;;;2.95;;
85137;SDS011;75497;42.708;23.330;2024-01-30T00:20:39;9.57;;;3.70;;
85137;SDS011;75497;42.708;23.330;2024-01-30T00:23:04;7.38;;;2.90;;
85137;SDS011;75497;42.708;23.330;2024-01-30T00:25:30;9.23;;;2.88;;
85137;SDS011;75497;42.708;23.330;2024-01-30T00:27:56;8.43;;;3.35;;
85137;SDS011;75497;42.708;23.330;2024-01-30T00:30:21;8.50;;;2.95;;
85137;SDS011;75497;42.708;23.330;2024-01-30T00:32:47;10.25;;;3.85;;
85137;SDS011;75497;42.708;23.330;2024-01-30T00:35:12;9.05;;;3.00;;
85137;SDS011;75497;42.708;23.330;2024-01-30T00:37:38;8.10;;;2.33;;
85137;SDS011;75497;42.708;23.330;2024-01-30T00:40:03;8.38;;;3.33;;
85137;SDS011;75497;42.708;23.330;2024-01-30T00:42:31;8.82;;;2.58;;
85137;SDS011;75497;42.708;23.330;2024-01-30T00:44:57;9.40;;;2.85;;
85137;SDS011;75497;42.708;23.330;2024-01-30T00:47:22;9.13;;;3.10;;
85137;SDS011;75497;42.708;23.330;2024-01-30T00:49:48;9.63;;;3.30;;
85137;SDS011;75497;42.708;23.330;2024-01-30T00:52:14;7.70;;;3.08;;
85137;SDS011;75497;42.708;23.330;2024-01-30T00:54:39;7.82;;;2.75;;
85137;SDS011;75497;42.708;23.330;2024-01-30T00:57:05;6.75;;;2.83;;
85137;SDS011;75497;42.708;23.330;2024-01-30T00:59:30;8.07;;;3.40;;
85137;SDS011;75497;42.708;23.330;2024-01-30T01:01:56;11.00;;;3.85;;
85137;SDS011;75497;42.708;23.330;2024-01-30T01:04:21;8.80;;;3.38;;
85137;SDS011;75497;42.708;23.330;2024-01-30T01:06:47;9.00;;;3.42;;
85137;SDS011;75497;42.708;23.330;2024-01-30T01:09:12;8.55;;;2.88;;
85137;SDS011;75497;42.708;23.330;2024-01-30T01:11:38;8.50;;;2.80;;
85137;SDS011;75497;42.708;23.330;2024-01-30T01:14:04;7.45;;;2.80;;
85137;SDS011;75497;42.708;23.330;2024-01-30T01:16:48;7.85;;;2.92;;
85137;SDS011;75497;42.708;23.330;2024-01-30T01:19:13;9.27;;;2.85;;
85137;SDS011;75497;42.708;23.330;2024-01-30T01:21:39;8.43;;;3.10;;
85137;SDS011;75497;42.708;23.330;2024-01-30T01:24:05;7.63;;;2.72;;
85137;SDS011;75497;42.708;23.330;2024-01-30T01:26:30;9.73;;;2.83;;
85137;SDS011;75497;42.708;23.330;2024-01-30T01:28:56;10.25;;;3.50;;
85137;SDS011;75497;42.708;23.330;2024-01-30T01:31:21;8.88;;;3.60;;
85137;SDS011;75497;42.708;23.330;2024-01-30T01:33:49;7.65;;;3.33;;
85137;SDS011;75497;42.708;23.330;2024-01-30T01:36:15;6.85;;;2.60;;
85137;SDS011;75497;42.708;23.330;2024-01-30T01:38:41;9.07;;;3.15;;
85137;SDS011;75497;42.708;23.330;2024-01-30T01:41:06;8.60;;;3.20;;
85137;SDS011;75497;42.708;23.330;2024-01-30T01:43:32;10.18;;;3.38;;
85137;SDS011;75497;42.708;23.330;2024-01-30T01:45:57;10.48;;;3.63;;
85137;SDS011;75497;42.708;23.330;2024-01-30T01:48:23;9.70;;;3.05;;
85137;SDS011;75497;42.708;23.330;2024-01-30T01:50:48;7.93;;;3.03;;
85137;SDS011;75497;42.708;23.330;2024-01-30T01:53:14;8.50;;;3.35;;
85137;SDS011;75497;42.708;23.330;2024-01-30T01:55:41;8.15;;;3.20;;
85137;SDS011;75497;42.708;23.330;2024-01-30T01:58:07;8.00;;;3.15;;
85137;SDS011;75497;42.708;23.330;2024-01-30T02:00:34;10.10;;;3.65;;
85137;SDS011;75497;42.708;23.330;2024-01-30T02:03:01;9.25;;;3.17;;
85137;SDS011;75497;42.708;23.330;2024-01-30T02:05:29;9.68;;;3.83;;
85137;SDS011;75497;42.708;23.330;2024-01-30T02:07:55;10.05;;;3.33;;
85137;SDS011;75497;42.708;23.330;2024-01-30T02:10:21;11.85;;;3.83;;
85137;SDS011;75497;42.708;23.330;2024-01-30T02:12:48;10.68;;;3.45;;
85137;SDS011;75497;42.708;23.330;2024-01-30T02:15:13;14.50;;;4.50;;
85137;SDS011;75497;42.708;23.330;2024-01-30T02:17:39;9.05;;;3.88;;
85137;SDS011;75497;42.708;23.330;2024-01-30T02:20:04;8.50;;;3.60;;
85137;SDS011;75497;42.708;23.330;2024-01-30T02:22:31;9.73;;;3.45;;
85137;SDS011;75497;42.708;23.330;2024-01-30T02:24:59;8.57;;;2.83;;
85137;SDS011;75497;42.708;23.330;2024-01-30T02:27:25;7.15;;;3.15;;
85137;SDS011;75497;42.708;23.330;2024-01-30T02:29:50;8.40;;;3.15;;
85137;SDS011;75497;42.708;23.330;2024-01-30T02:32:16;8.07;;;2.85;;
85137;SDS011;75497;42.708;23.330;2024-01-30T02:34:41;7.97;;;2.78;;
85137;SDS011;75497;42.708;23.330;2024-01-30T02:37:07;8.45;;;2.78;;
85137;SDS011;75497;42.708;23.330;2024-01-30T02:39:33;9.27;;;2.60;;
85137;SDS011;75497;42.708;23.330;2024-01-30T02:41:58;10.18;;;2.75;;
85137;SDS011;75497;42.708;23.330;2024-01-30T02:44:24;8.18;;;3.05;;
85137;SDS011;75497;42.708;23.330;2024-01-30T02:46:49;8.70;;;3.40;;
85137;SDS011;75497;42.708;23.330;2024-01-30T02:49:15;8.30;;;3.25;;
85137;SDS011;75497;42.708;23.330;2024-01-30T02:51:40;8.02;;;2.80;;
85137;SDS011;75497;42.708;23.330;2024-01-30T02:54:06;9.25;;;3.30;;
85137;SDS011;75497;42.708;23.330;2024-01-30T02:56:31;9.27;;;3.05;;
85137;SDS011;75497;42.708;23.330;2024-01-30T02:58:57;9.02;;;2.78;;
85137;SDS011;75497;42.708;23.330;2024-01-30T03:01:22;10.80;;;3.40;;
85137;SDS011;75497;42.708;23.330;2024-01-30T03:03:49;9.07;;;2.90;;
85137;SDS011;75497;42.708;23.330;2024-01-30T03:06:15;10.38;;;3.50;;
85137;SDS011;75497;42.708;23.330;2024-01-30T03:08:42;10.43;;;3.80;;
85137;SDS011;75497;42.708;23.330;2024-01-30T03:11:08;11.65;;;3.67;;
85137;SDS011;75497;42.708;23.330;2024-01-30T03:13:33;9.07;;;3.08;;
85137;SDS011;75497;42.708;23.330;2024-01-30T03:15:59;9.27;;;3.70;;
85137;SDS011;75497;42.708;23.330;2024-01-30T03:18:24;9.38;;;4.40;;
85137;SDS011;75497;42.708;23.330;2024-01-30T03:20:50;11.27;;;3.33;;
85137;SDS011;75497;42.708;23.330;2024-01-30T03:23:15;9.38;;;3.75;;
85137;SDS011;75497;42.708;23.330;2024-01-30T03:25:41;7.70;;;2.63;;
85137;SDS011;75497;42.708;23.330;2024-01-30T03:28:06;8.50;;;2.30;;
85137;SDS011;75497;42.708;23.330;2024-01-30T03:30:32;8.40;;;2.92;;
85137;SDS011;75497;42.708;23.330;2024-01-30T03:32:57;8.93;;;3.08;;
85137;SDS011;75497;42.708;23.330;2024-01-30T03:35:23;9.05;;;3.35;;
85137;SDS011;75497;42.708;23.330;2024-01-30T03:37:48;9.07;;;3.13;;
85137;SDS011;75497;42.708;23.330;2024-01-30T03:40:14;8.13;;;2.50;;
85137;SDS011;75497;42.708;23.330;2024-01-30T03:42:40;7.45;;;2.33;;
85137;SDS011;75497;42.708;23.330;2024-01-30T03:45:05;9.70;;;2.70;;
85137;SDS011;75497;42.708;23.330;2024-01-30T03:47:31;7.45;;;2.47;;
85137;SDS011;75497;42.708;23.330;2024-01-30T03:49:57;7.95;;;2.72;;
85137;SDS011;75497;42.708;23.330;2024-01-30T03:52:23;9.43;;;3.08;;
85137;SDS011;75497;42.708;23.330;2024-01-30T03:54:48;8.95;;;3.65;;
85137;SDS011;75497;42.708;23.330;2024-01-30T03:57:14;9.52;;;3.55;;
85137;SDS011;75497;42.708;23.330;2024-01-30T03:59:41;11.70;;;2.95;;
85137;SDS011;75497;42.708;23.330;2024-01-30T04:02:10;8.23;;;2.45;;
85137;SDS011;75497;42.708;23.330;2024-01-30T04:04:36;11.18;;;1.95;;
85137;SDS011;75497;42.708;23.330;2024-01-30T04:07:02;7.68;;;2.08;;
85137;SDS011;75497;42.708;23.330;2024-01-30T04:09:28;6.65;;;2.00;;
85137;SDS011;75497;42.708;23.330;2024-01-30T04:11:53;9.43;;;2.53;;
85137;SDS011;75497;42.708;23.330;2024-01-30T04:14:19;9.98;;;3.00;;
85137;SDS011;75497;42.708;23.330;2024-01-30T04:16:44;7.95;;;2.65;;
85137;SDS011;75497;42.708;23.330;2024-01-30T04:19:10;9.90;;;3.17;;
85137;SDS011;75497;42.708;23.330;2024-01-30T04:21:35;7.68;;;2.20;;
85137;SDS011;75497;42.708;23.330;2024-01-30T04:24:01;8.85;;;2.53;;
85137;SDS011;75497;42.708;23.330;2024-01-30T04:26:26;7.40;;;2.28;;
85137;SDS011;75497;42.708;23.330;2024-01-30T04:28:52;8.95;;;2.97;;
85137;SDS011;75497;42.708;23.330;2024-01-30T04:31:18;10.57;;;3.40;;
85137;SDS011;75497;42.708;23.330;2024-01-30T04:33:43;7.88;;;2.20;;
85137;SDS011;75497;42.708;23.330;2024-01-30T04:36:09;9.35;;;3.50;;
85137;SDS011;75497;42.708;23.330;2024-01-30T04:38:40;11.25;;;3.25;;
85137;SDS011;75497;42.708;23.330;2024-01-30T04:41:06;9.82;;;3.40;;
85137;SDS011;75497;42.708;23.330;2024-01-30T04:43:32;13.95;;;4.38;;
85137;SDS011;75497;42.708;23.330;2024-01-30T04:45:58;9.45;;;3.67;;
85137;SDS011;75497;42.708;23.330;2024-01-30T04:48:23;8.88;;;3.38;;
85137;SDS011;75497;42.708;23.330;2024-01-30T04:50:49;11.02;;;2.80;;
85137;SDS011;75497;42.708;23.330;2024-01-30T04:53:14;9.90;;;3.17;;
85137;SDS011;75497;42.708;23.330;2024-01-30T04:55:40;17.33;;;4.22;;
85137;SDS011;75497;42.708;23.330;2024-01-30T04:58:05;11.13;;;3.08;;
85137;SDS011;75497;42.708;23.330;2024-01-30T05:00:31;9.50;;;2.65;;
85137;SDS011;75497;42.708;23.330;2024-01-30T05:02:56;11.45;;;3.40;;
85137;SDS011;75497;42.708;23.330;2024-01-30T05:05:22;8.80;;;3.00;;
85137;SDS011;75497;42.708;23.330;2024-01-30T05:07:47;9.02;;;3.33;;
85137;SDS011;75497;42.708;23.330;2024-01-30T05:10:13;8.50;;;3.00;;
85137;SDS011;75497;42.708;23.330;2024-01-30T05:12:39;9.35;;;3.00;;
85137;SDS011;75497;42.708;23.330;2024-01-30T05:15:05;8.15;;;2.63;;
85137;SDS011;75497;42.708;23.330;2024-01-30T05:17:31;9.82;;;3.65;;
85137;SDS011;75497;42.708;23.330;2024-01-30T05:19:57;9.75;;;3.65;;
85137;SDS011;75497;42.708;23.330;2024-01-30T05:22:22;12.88;;;3.70;;
85137;SDS011;75497;42.708;23.330;2024-01-30T05:24:48;11.13;;;4.57;;
85137;SDS011;75497;42.708;23.330;2024-01-30T05:27:13;11.60;;;4.05;;
85137;SDS011;75497;42.708;23.330;2024-01-30T05:29:39;10.63;;;4.10;;
85137;SDS011;75497;42.708;23.330;2024-01-30T05:32:06;15.10;;;4.97;;
85137;SDS011;75497;42.708;23.330;2024-01-30T05:34:31;16.80;;;5.40;;
85137;SDS011;75497;42.708;23.330;2024-01-30T05:36:57;15.02;;;5.65;;
85137;SDS011;75497;42.708;23.330;2024-01-30T05:39:22;13.23;;;4.57;;
85137;SDS011;75497;42.708;23.330;2024-01-30T05:41:48;23.17;;;8.80;;
85137;SDS011;75497;42.708;23.330;2024-01-30T05:44:13;26.20;;;9.65;;
85137;SDS011;75497;42.708;23.330;2024-01-30T05:46:39;27.33;;;8.82;;
85137;SDS011;75497;42.708;23.330;2024-01-30T05:49:04;14.77;;;7.10;;
85137;SDS011;75497;42.708;23.330;2024-01-30T05:51:30;17.20;;;6.05;;
85137;SDS011;75497;42.708;23.330;2024-01-30T05:53:55;17.38;;;6.60;;
85137;SDS011;75497;42.708;23.330;2024-01-30T05:56:21;15.43;;;5.28;;
85137;SDS011;75497;42.708;23.330;2024-01-30T05:58:47;13.70;;;5.07;;
85137;SDS011;75497;42.708;23.330;2024-01-30T06:01:12;11.40;;;4.15;;
85137;SDS011;75497;42.708;23.330;2024-01-30T06:03:38;12.65;;;5.05;;
85137;SDS011;75497;42.708;23.330;2024-01-30T06:06:04;11.20;;;3.53;;
85137;SDS011;75497;42.708;23.330;2024-01-30T06:08:29;10.90;;;3.17;;
85137;SDS011;75497;42.708;23.330;2024-01-30T06:10:55;6.40;;;1.95;;
85137;SDS011;75497;42.708;23.330;2024-01-30T06:13:20;13.02;;;3.25;;
85137;SDS011;75497;42.708;23.330;2024-01-30T06:15:46;10.93;;;4.43;;
85137;SDS011;75497;42.708;23.330;2024-01-30T06:18:11;9.93;;;3.40;;
85137;SDS011;75497;42.708;23.330;2024-01-30T06:20:37;8.38;;;2.97;;
85137;SDS011;75497;42.708;23.330;2024-01-30T06:23:02;11.00;;;3.70;;
85137;SDS011;75497;42.708;23.330;2024-01-30T06:25:28;11.07;;;2.90;;
85137;SDS011;75497;42.708;23.330;2024-01-30T06:27:54;15.15;;;3.30;;
85137;SDS011;75497;42.708;23.330;2024-01-30T06:30:19;9.73;;;3.10;;
85137;SDS011;75497;42.708;23.330;2024-01-30T06:32:45;11.07;;;3.53;;
85137;SDS011;75497;42.708;23.330;2024-01-30T06:35:10;9.20;;;3.40;;
85137;SDS011;75497;42.708;23.330;2024-01-30T06:37:36;9.98;;;3.03;;
85137;SDS011;75497;42.708;23.330;2024-01-30T06:40:02;9.07;;;3.47;;
85137;SDS011;75497;42.708;23.330;2024-01-30T06:42:29;13.40;;;3.50;;
85137;SDS011;75497;42.708;23.330;2024-01-30T06:44:55;12.27;;;4.20;;
85137;SDS011;75497;42.708;23.330;2024-01-30T06:47:21;11.25;;;3.65;;
85137;SDS011;75497;42.708;23.330;2024-01-30T06:49:46;15.25;;;4.30;;
85137;SDS011;75497;42.708;23.330;2024-01-30T06:52:12;10.70;;;3.47;;
85137;SDS011;75497;42.708;23.330;2024-01-30T06:54:37;14.00;;;4.40;;
85137;SDS011;75497;42.708;23.330;2024-01-30T06:57:03;10.30;;;3.63;;
85137;SDS011;75497;42.708;23.330;2024-01-30T06:59:28;11.52;;;3.78;;
85137;SDS011;75497;42.708;23.330;2024-01-30T07:01:54;10.27;;;4.00;;
85137;SDS011;75497;42.708;23.330;2024-01-30T07:04:19;13.57;;;4.15;;
85137;SDS011;75497;42.708;23.330;2024-01-30T07:06:45;11.88;;;4.03;;
85137;SDS011;75497;42.708;23.330;2024-01-30T07:09:12;17.95;;;5.95;;
85137;SDS011;75497;42.708;23.330;2024-01-30T07:11:38;20.45;;;6.20;;
85137;SDS011;75497;42.708;23.330;2024-01-30T07:14:04;12.13;;;5.40;;
85137;SDS011;75497;42.708;23.330;2024-01-30T07:16:29;27.58;;;6.03;;
85137;SDS011;75497;42.708;23.330;2024-01-30T07:18:55;13.13;;;2.70;;
85137;SDS011;75497;42.708;23.330;2024-01-30T07:21:21;14.07;;;5.32;;
85137;SDS011;75497;42.708;23.330;2024-01-30T07:26:18;9.95;;;4.15;;
85137;SDS011;75497;42.708;23.330;2024-01-30T07:28:43;12.50;;;4.28;;
85137;SDS011;75497;42.708;23.330;2024-01-30T07:31:09;9.43;;;4.03;;
85137;SDS011;75497;42.708;23.330;2024-01-30T07:33:34;10.13;;;2.78;;
85137;SDS011;75497;42.708;23.330;2024-01-30T07:36:01;9.95;;;3.08;;
85137;SDS011;75497;42.708;23.330;2024-01-30T07:38:26;12.27;;;3.20;;
85137;SDS011;75497;42.708;23.330;2024-01-30T07:40:52;13.93;;;3.33;;
85137;SDS011;75497;42.708;23.330;2024-01-30T07:43:17;8.25;;;3.13;;
85137;SDS011;75497;42.708;23.330;2024-01-30T07:45:44;8.07;;;2.72;;
85137;SDS011;75497;42.708;23.330;2024-01-30T07:48:10;11.02;;;3.55;;
85137;SDS011;75497;42.708;23.330;2024-01-30T07:50:35;10.23;;;3.50;;
85137;SDS011;75497;42.708;23.330;2024-01-30T07:53:01;7.68;;;3.67;;
85137;SDS011;75497;42.708;23.330;2024-01-30T07:55:27;7.25;;;3.00;;
85137;SDS011;75497;42.708;23.330;2024-01-30T07:57:54;8.73;;;3.63;;
85137;SDS011;75497;42.708;23.330;2024-01-30T08:00:20;8.27;;;2.60;;
85137;SDS011;75497;42.708;23.330;2024-01-30T08:02:46;6.43;;;2.75;;
85137;SDS011;75497;42.708;23.330;2024-01-30T08:05:12;8.13;;;2.85;;
85137;SDS011;75497;42.708;23.330;2024-01-30T08:07:40;8.40;;;2.55;;
85137;SDS011;75497;42.708;23.330;2024-01-30T08:10:20;9.23;;;2.97;;
85137;SDS011;75497;42.708;23.330;2024-01-30T08:12:46;14.98;;;4.10;;
85137;SDS011;75497;42.708;23.330;2024-01-30T08:15:12;10.05;;;3.38;;
85137;SDS011;75497;42.708;23.330;2024-01-30T08:17:38;13.63;;;4.22;;
85137;SDS011;75497;42.708;23.330;2024-01-30T08:20:04;8.95;;;2.80;;
85137;SDS011;75497;42.708;23.330;2024-01-30T08:22:30;8.80;;;3.92;;
85137;SDS011;75497;42.708;23.330;2024-01-30T08:24:56;10.82;;;3.47;;
85137;SDS011;75497;42.708;23.330;2024-01-30T08:27:21;8.52;;;2.33;;
85137;SDS011;75497;42.708;23.330;2024-01-30T08:29:46;7.82;;;2.95;;
85137;SDS011;75497;42.708;23.330;2024-01-30T08:32:12;9.38;;;4.53;;
85137;SDS011;75497;42.708;23.330;2024-01-30T08:34:37;13.95;;;3.60;;
85137;SDS011;75497;42.708;23.330;2024-01-30T08:37:03;8.90;;;3.00;;
85137;SDS011;75497;42.708;23.330;2024-01-30T08:39:28;8.35;;;3.40;;
85137;SDS011;75497;42.708;23.330;2024-01-30T08:41:55;8.73;;;3.92;;
85137;SDS011;75497;42.708;23.330;2024-01-30T08:46:56;8.40;;;2.38;;
85137;SDS011;75497;42.708;23.330;2024-01-30T08:49:21;9.85;;;3.85;;
85137;SDS011;75497;42.708;23.330;2024-01-30T08:51:47;11.63;;;4.10;;
85137;SDS011;75497;42.708;23.330;2024-01-30T08:54:13;10.32;;;3.15;;
85137;SDS011;75497;42.708;23.330;2024-01-30T08:56:38;8.07;;;3.60;;
85137;SDS011;75497;42.708;23.330;2024-01-30T08:59:04;11.57;;;4.03;;
85137;SDS011;75497;42.708;23.330;2024-01-30T09:01:29;19.40;;;4.65;;
85137;SDS011;75497;42.708;23.330;2024-01-30T09:03:55;9.70;;;3.50;;
85137;SDS011;75497;42.708;23.330;2024-01-30T09:06:21;10.48;;;3.97;;
85137;SDS011;75497;42.708;23.330;2024-01-30T09:08:46;14.70;;;4.07;;
85137;SDS011;75497;42.708;23.330;2024-01-30T09:11:12;14.73;;;3.88;;
85137;SDS011;75497;42.708;23.330;2024-01-30T09:13:38;9.93;;;4.07;;
85137;SDS011;75497;42.708;23.330;2024-01-30T09:16:04;8.75;;;4.10;;
85137;SDS011;75497;42.708;23.330;2024-01-30T09:18:30;11.23;;;4.40;;
85137;SDS011;75497;42.708;23.330;2024-01-30T09:20:56;16.52;;;5.25;;
85137;SDS011;75497;42.708;23.330;2024-01-30T09:23:22;10.32;;;3.30;;
85137;SDS011;75497;42.708;23.330;2024-01-30T09:25:47;11.60;;;3.72;;
85137;SDS011;75497;42.708;23.330;2024-01-30T09:28:13;16.40;;;4.90;;
85137;SDS011;75497;42.708;23.330;2024-01-30T09:30:39;11.93;;;3.83;;
85137;SDS011;75497;42.708;23.330;2024-01-30T09:33:05;9.65;;;2.72;;
85137;SDS011;75497;42.708;23.330;2024-01-30T09:35:31;9.88;;;3.50;;
85137;SDS011;75497;42.708;23.330;2024-01-30T09:37:57;7.80;;;2.97;;
85137;SDS011;75497;42.708;23.330;2024-01-30T09:40:23;12.75;;;3.20;;
85137;SDS011;75497;42.708;23.330;2024-01-30T09:42:50;12.68;;;3.83;;
85137;SDS011;75497;42.708;23.330;2024-01-30T09:45:17;11.63;;;3.85;;
85137;SDS011;75497;42.708;23.330;2024-01-30T09:47:44;9.40;;;3.95;;
85137;SDS011;75497;42.708;23.330;2024-01-30T09:50:11;7.63;;;2.90;;
85137;SDS011;75497;42.708;23.330;2024-01-30T09:52:38;9.68;;;2.70;;
85137;SDS011;75497;42.708;23.330;2024-01-30T09:55:04;8.82;;;3.05;;
85137;SDS011;75497;42.708;23.330;2024-01-30T09:57:31;11.27;;;3.58;;
85137;SDS011;75497;42.708;23.330;2024-01-30T09:59:56;9.55;;;4.07;;
85137;SDS011;75497;42.708;23.330;2024-01-30T10:02:22;9.57;;;3.80;;
85137;SDS011;75497;42.708;23.330;2024-01-30T10:04:48;6.20;;;2.60;;
85137;SDS011;75497;42.708;23.330;2024-01-30T10:07:15;11.68;;;3.50;;
85137;SDS011;75497;42.708;23.330;2024-01-30T10:09:41;11.05;;;3.83;;
85137;SDS011;75497;42.708;23.330;2024-01-30T10:12:07;5.10;;;1.92;;
85137;SDS011;75497;42.708;23.330;2024-01-30T10:14:33;6.72;;;2.17;;
85137;SDS011;75497;42.708;23.330;2024-01-30T10:17:03;6.90;;;2.42;;
85137;SDS011;75497;42.708;23.330;2024-01-30T10:19:29;9.55;;;2.30;;
85137;SDS011;75497;42.708;23.330;2024-01-30T10:21:54;6.35;;;2.40;;
85137;SDS011;75497;42.708;23.330;2024-01-30T10:24:23;7.38;;;2.92;;
85137;SDS011;75497;42.708;23.330;2024-01-30T10:26:49;9.45;;;2.00;;
85137;SDS011;75497;42.708;23.330;2024-01-30T10:29:15;12.73;;;3.22;;
85137;SDS011;75497;42.708;23.330;2024-01-30T10:31:41;7.22;;;2.33;;
85137;SDS011;75497;42.708;23.330;2024-01-30T10:34:07;8.63;;;2.95;;
85137;SDS011;75497;42.708;23.330;2024-01-30T10:36:32;11.18;;;3.55;;
85137;SDS011;75497;42.708;23.330;2024-01-30T10:39:08;8.82;;;2.72;;
85137;SDS011;75497;42.708;23.330;2024-01-30T10:41:36;6.18;;;2.65;;
85137;SDS011;75497;42.708;23.330;2024-01-30T10:44:09;6.00;;;2.35;;
85137;SDS011;75497;42.708;23.330;2024-01-30T10:46:35;5.72;;;2.00;;
85137;SDS011;75497;42.708;23.330;2024-01-30T10:49:03;8.02;;;2.67;;
85137;SDS011;75497;42.708;23.330;2024-01-30T10:51:29;5.65;;;2.30;;
85137;SDS011;75497;42.708;23.330;2024-01-30T10:53:56;7.80;;;3.30;;
85137;SDS011;75497;42.708;23.330;2024-01-30T10:56:22;7.40;;;3.30;;
85137;SDS011;75497;42.708;23.330;2024-01-30T10:58:52;5.97;;;1.92;;
85137;SDS011;75497;42.708;23.330;2024-01-30T11:01:19;6.78;;;3.20;;
85137;SDS011;75497;42.708;23.330;2024-01-30T11:03:48;6.32;;;2.72;;
85137;SDS011;75497;42.708;23.330;2024-01-30T11:06:15;6.65;;;2.05;;
85137;SDS011;75497;42.708;23.330;2024-01-30T11:08:43;9.07;;;2.55;;
85137;SDS011;75497;42.708;23.330;2024-01-30T11:11:10;7.70;;;2.33;;
85137;SDS011;75497;42.708;23.330;2024-01-30T11:13:35;6.13;;;2.08;;
85137;SDS011;75497;42.708;23.330;2024-01-30T11:16:02;6.72;;;2.40;;
85137;SDS011;75497;42.708;23.330;2024-01-30T11:18:31;6.68;;;2.63;;
85137;SDS011;75497;42.708;23.330;2024-01-30T11:20:58;11.55;;;2.40;;
85137;SDS011;75497;42.708;23.330;2024-01-30T11:23:26;5.88;;;1.98;;
85137;SDS011;75497;42.708;23.330;2024-01-30T11:25:53;6.22;;;2.10;;
85137;SDS011;75497;42.708;23.330;2024-01-30T11:28:19;6.18;;;2.30;;
85137;SDS011;75497;42.708;23.330;2024-01-30T11:30:46;9.50;;;3.17;;
85137;SDS011;75497;42.708;23.330;2024-01-30T11:33:13;11.90;;;4.25;;
85137;SDS011;75497;42.708;23.330;2024-01-30T11:35:42;8.70;;;3.38;;
85137;SDS011;75497;42.708;23.330;2024-01-30T11:38:10;11.02;;;3.85;;
85137;SDS011;75497;42.708;23.330;2024-01-30T11:40:37;9.82;;;3.97;;
85137;SDS011;75497;42.708;23.330;2024-01-30T11:43:04;9.90;;;3.17;;
85137;SDS011;75497;42.708;23.330;2024-01-30T11:45:31;8.60;;;3.33;;
85137;SDS011;75497;42.708;23.330;2024-01-30T11:47:57;5.97;;;2.50;;
85137;SDS011;75497;42.708;23.330;2024-01-30T11:50:25;7.25;;;2.00;;
85137;SDS011;75497;42.708;23.330;2024-01-30T11:52:51;6.88;;;2.10;;
85137;SDS011;75497;42.708;23.330;2024-01-30T11:55:16;7.53;;;2.67;;
85137;SDS011;75497;42.708;23.330;2024-01-30T11:57:42;8.40;;;2.80;;
85137;SDS011;75497;42.708;23.330;2024-01-30T12:00:15;13.73;;;3.72;;
85137;SDS011;75497;42.708;23.330;2024-01-30T12:02:43;8.77;;;3.13;;
85137;SDS011;75497;42.708;23.330;2024-01-30T12:05:13;12.23;;;3.10;;
85137;SDS011;75497;42.708;23.330;2024-01-30T12:07:39;9.02;;;2.67;;
85137;SDS011;75497;42.708;23.330;2024-01-30T12:10:04;7.88;;;2.72;;
85137;SDS011;75497;42.708;23.330;2024-01-30T12:12:30;6.65;;;2.75;;
85137;SDS011;75497;42.708;23.330;2024-01-30T12:14:56;11.23;;;2.95;;
85137;SDS011;75497;42.708;23.330;2024-01-30T12:20:04;7.50;;;2.55;;
85137;SDS011;75497;42.708;23.330;2024-01-30T12:24:58;15.60;;;3.35;;
85137;SDS011;75497;42.708;23.330;2024-01-30T12:27:24;6.55;;;2.53;;
85137;SDS011;75497;42.708;23.330;2024-01-30T12:29:55;7.50;;;2.97;;
85137;SDS011;75497;42.708;23.330;2024-01-30T12:32:22;5.90;;;2.40;;
85137;SDS011;75497;42.708;23.330;2024-01-30T12:34:48;7.22;;;3.10;;
85137;SDS011;75497;42.708;23.330;2024-01-30T12:37:13;11.23;;;3.65;;
85137;SDS011;75497;42.708;23.330;2024-01-30T12:39:39;9.18;;;3.85;;
85137;SDS011;75497;42.708;23.330;2024-01-30T12:42:05;7.85;;;3.63;;
85137;SDS011;75497;42.708;23.330;2024-01-30T12:44:31;8.10;;;3.72;;
85137;SDS011;75497;42.708;23.330;2024-01-30T12:46:57;12.88;;;4.05;;
85137;SDS011;75497;42.708;23.330;2024-01-30T12:49:22;8.05;;;3.20;;
85137;SDS011;75497;42.708;23.330;2024-01-30T12:51:47;9.35;;;3.08;;
85137;SDS011;75497;42.708;23.330;2024-01-30T12:54:13;9.50;;;2.90;;
85137;SDS011;75497;42.708;23.330;2024-01-30T12:56:39;5.95;;;2.58;;
85137;SDS011;75497;42.708;23.330;2024-01-30T12:59:04;9.23;;;3.05;;
85137;SDS011;75497;42.708;23.330;2024-01-30T13:01:30;6.43;;;2.92;;
85137;SDS011;75497;42.708;23.330;2024-01-30T13:03:55;7.30;;;3.05;;
85137;SDS011;75497;42.708;23.330;2024-01-30T13:06:22;8.18;;;3.50;;
85137;SDS011;75497;42.708;23.330;2024-01-30T13:08:48;9.48;;;3.42;;
85137;SDS011;75497;42.708;23.330;2024-01-30T13:11:13;10.10;;;2.88;;
85137;SDS011;75497;42.708;23.330;2024-01-30T13:13:39;7.95;;;3.30;;
85137;SDS011;75497;42.708;23.330;2024-01-30T13:16:06;6.65;;;3.50;;
85137;SDS011;75497;42.708;23.330;2024-01-30T13:18:31;8.68;;;4.15;;
85137;SDS011;75497;42.708;23.330;2024-01-30T13:20:57;7.78;;;3.17;;
85137;SDS011;75497;42.708;23.330;2024-01-30T13:23:22;8.77;;;4.38;;
85137;SDS011;75497;42.708;23.330;2024-01-30T13:25:48;8.20;;;3.60;;
85137;SDS011;75497;42.708;23.330;2024-01-30T13:28:13;8.27;;;3.65;;
85137;SDS011;75497;42.708;23.330;2024-01-30T13:30:39;10.50;;;4.68;;
85137;SDS011;75497;42.708;23.330;2024-01-30T13:33:04;7.35;;;2.33;;
85137;SDS011;75497;42.708;23.330;2024-01-30T13:35:30;8.32;;;4.00;;
85137;SDS011;75497;42.708;23.330;2024-01-30T13:37:55;8.40;;;3.47;;
85137;SDS011;75497;42.708;23.330;2024-01-30T13:40:21;6.68;;;3.17;;
85137;SDS011;75497;42.708;23.330;2024-01-30T13:42:47;9.93;;;4.45;;
85137;SDS011;75497;42.708;23.330;2024-01-30T13:45:13;8.15;;;3.40;;
85137;SDS011;75497;42.708;23.330;2024-01-30T13:47:38;8.38;;;3.60;;
85137;SDS011;75497;42.708;23.330;2024-01-30T13:50:04;9.25;;;3.38;;
85137;SDS011;75497;42.708;23.330;2024-01-30T13:52:30;6.95;;;3.00;;
85137;SDS011;75497;42.708;23.330;2024-01-30T13:54:56;9.55;;;3.35;;
85137;SDS011;75497;42.708;23.330;2024-01-30T13:57:21;9.40;;;4.45;;
85137;SDS011;75497;42.708;23.330;2024-01-30T13:59:47;8.70;;;4.22;;
85137;SDS011;75497;42.708;23.330;2024-01-30T14:02:12;8.27;;;3.78;;
85137;SDS011;75497;42.708;23.330;2024-01-30T14:04:38;11.45;;;4.75;;
85137;SDS011;75497;42.708;23.330;2024-01-30T14:07:04;8.70;;;3.35;;
85137;SDS011;75497;42.708;23.330;2024-01-30T14:09:31;8.73;;;3.58;;
85137;SDS011;75497;42.708;23.330;2024-01-30T14:11:58;8.50;;;3.58;;
85137;SDS011;75497;42.708;23.330;2024-01-30T14:14:23;7.13;;;3.30;;
85137;SDS011;75497;42.708;23.330;2024-01-30T14:16:49;9.40;;;3.28;;
85137;SDS011;75497;42.708;23.330;2024-01-30T14:19:14;10.20;;;3.35;;
85137;SDS011;75497;42.708;23.330;2024-01-30T14:21:40;8.90;;;3.45;;
85137;SDS011;75497;42.708;23.330;2024-01-30T14:24:05;9.55;;;3.20;;
85137;SDS011;75497;42.708;23.330;2024-01-30T14:26:31;7.70;;;3.20;;
85137;SDS011;75497;42.708;23.330;2024-01-30T14:28:57;8.20;;;3.35;;
85137;SDS011;75497;42.708;23.330;2024-01-30T14:31:22;10.13;;;4.45;;
85137;SDS011;75497;42.708;23.330;2024-01-30T14:33:49;13.77;;;5.22;;